Time;durP1;ratioP1;P1;durP2;ratioP2;P2;SDS_P1;SDS_P2;PMS_P1;PMS_P2;Temp;Humidity;BMP_temperature;BMP_pressure;BME280_temperature;BME280_humidity;BME280_pressure;Samples;Min_cycle;Max_cycle;Signal;HPM_P1;HPM_P2
2022/10/13 00:01:40;;;;;;;12.38;11.38;;;;;;;9.17;100.00;99139.69;4111484;28;20652;-55
2022/10/13 00:03:45;;;;;;;14.68;13.32;;;;;;;9.19;100.00;99134.81;4109545;28;20207;-54
2022/10/13 00:05:49;;;;;;;12.77;11.68;;;;;;;9.18;100.00;99135.88;4110003;28;20306;-52
2022/10/13 00:07:50;;;;;;;12.25;11.25;;;;;;;9.15;100.00;99130.88;4123887;28;20767;-55
2022/10/13 00:09:52;;;;;;;11.40;10.50;;;;;;;9.20;100.00;99131.03;4124680;28;20289;-53
2022/10/13 00:11:57;;;;;;;11.73;10.82;;;;;;;9.16;100.00;99132.56;4127654;28;20206;-55
2022/10/13 00:14:00;;;;;;;11.10;10.05;;;;;;;9.16;100.00;99132.56;4108006;28;20227;-52
2022/10/13 00:16:02;;;;;;;13.32;12.32;;;;;;;9.17;100.00;99136.94;4107972;28;20212;-55
2022/10/13 00:18:04;;;;;;;11.82;10.82;;;;;;;9.17;100.00;99142.41;4124751;28;20765;-54
2022/10/13 00:20:07;;;;;;;14.27;11.20;;;;;;;9.16;100.00;99140.75;4123831;28;20225;-53
2022/10/13 00:22:09;;;;;;;13.68;12.30;;;;;;;9.15;100.00;99141.81;4123783;28;20202;-52
2022/10/13 00:24:11;;;;;;;16.67;12.45;;;;;;;9.19;100.00;99145.75;4112174;28;20236;-52
2022/10/13 00:26:14;;;;;;;13.55;12.35;;;;;;;9.15;100.00;99150.81;4106817;28;20223;-52
2022/10/13 00:28:18;;;;;;;18.70;13.40;;;;;;;9.16;100.00;99157.13;4110010;28;20704;-52
2022/10/13 00:30:20;;;;;;;14.95;13.50;;;;;;;9.17;100.00;99143.25;4110520;28;20572;-51
2022/10/13 00:32:22;;;;;;;12.30;11.35;;;;;;;9.17;100.00;99145.13;4127334;28;20199;-54
2022/10/13 00:34:23;;;;;;;14.45;13.25;;;;;;;9.14;100.00;99131.94;4111928;28;20264;-54
2022/10/13 00:36:25;;;;;;;16.02;12.85;;;;;;;9.01;100.00;99132.91;4125836;28;20202;-51
2022/10/13 00:38:27;;;;;;;19.35;13.05;;;;;;;8.99;100.00;99129.56;4127681;28;20230;-53
2022/10/13 00:40:28;;;;;;;22.60;14.48;;;;;;;8.98;100.00;99133.38;4124885;28;20210;-52
2022/10/13 00:42:30;;;;;;;12.82;11.63;;;;;;;8.95;100.00;99132.97;4092864;28;20298;-51
2022/10/13 00:44:58;;;;;;;12.38;11.27;;;;;;;8.93;100.00;99135.06;4122405;28;20281;-52
2022/10/13 00:46:59;;;;;;;13.98;12.68;;;;;;;8.95;100.00;99139.25;4120722;28;20202;-53
2022/10/13 00:49:07;;;;;;;59.25;12.77;;;;;;;9.00;100.00;99136.69;4120891;28;20292;-52
2022/10/13 00:51:10;;;;;;;13.75;12.63;;;;;;;9.08;100.00;99141.03;4085769;28;20207;-51
2022/10/13 00:53:13;;;;;;;12.55;11.45;;;;;;;9.10;100.00;99144.38;4105620;28;20216;-52
2022/10/13 00:55:17;;;;;;;12.63;11.55;;;;;;;9.08;100.00;99150.03;4125201;28;20269;-51
2022/10/13 00:57:19;;;;;;;11.80;10.90;;;;;;;9.09;100.00;99146.25;4106400;28;20211;-52
2022/10/13 00:59:27;;;;;;;12.57;11.52;;;;;;;8.95;100.00;99149.34;4117425;28;20256;-53
2022/10/13 01:01:30;;;;;;;14.88;12.85;;;;;;;8.76;100.00;99137.53;4118483;28;20214;-52
2022/10/13 01:03:31;;;;;;;13.48;11.80;;;;;;;8.83;100.00;99145.69;4119755;28;20214;-52
2022/10/13 01:05:33;;;;;;;25.60;11.20;;;;;;;8.53;100.00;99139.22;4106036;28;20640;-51
2022/10/13 01:07:35;;;;;;;17.23;10.57;;;;;;;8.41;100.00;99141.81;4104935;28;20509;-53
2022/10/13 01:09:36;;;;;;;13.00;9.18;;;;;;;8.35;100.00;99148.16;4124542;28;20665;-53
2022/10/13 01:11:45;;;;;;;16.33;9.07;;;;;;;8.28;100.00;99146.53;4119902;28;20214;-52
2022/10/13 01:14:05;;;;;;;10.95;9.40;;;;;;;8.52;100.00;99143.00;4121914;28;20598;-53
2022/10/13 01:16:22;;;;;;;10.10;9.30;;;;;;;8.31;100.00;99146.09;4119525;28;20212;-52
2022/10/13 01:18:44;;;;;;;10.40;9.27;;;;;;;8.25;100.00;99141.50;4118296;28;20276;-52
2022/10/13 01:21:20;;;;;;;14.02;9.48;;;;;;;8.13;100.00;99144.09;4105648;28;20988;-53
2022/10/13 01:23:40;;;;;;;8.25;7.60;;;;;;;8.04;100.00;99139.09;4109737;28;21704;-52
2022/10/13 01:25:51;;;;;;;14.57;8.65;;;;;;;8.24;100.00;99140.69;4118354;28;22753;-52
2022/10/13 01:28:16;;;;;;;8.63;7.90;;;;;;;8.16;100.00;99149.09;4104183;28;20202;-52
2022/10/13 01:30:20;;;;;;;8.90;8.20;;;;;;;8.33;100.00;99138.50;4119596;28;20213;-53
2022/10/13 01:32:30;;;;;;;8.88;8.07;;;;;;;8.38;100.00;99131.38;4122332;28;20213;-53
2022/10/13 01:34:43;;;;;;;9.15;8.45;;;;;;;8.45;100.00;99131.31;4121253;28;20339;-53
2022/10/13 01:36:53;;;;;;;7.97;7.32;;;;;;;8.49;100.00;99127.09;4121192;28;20549;-53
2022/10/13 01:39:08;;;;;;;8.55;7.82;;;;;;;8.52;100.00;99132.09;4119497;28;20225;-53
2022/10/13 01:41:22;;;;;;;8.27;7.57;;;;;;;8.55;100.00;99128.94;4106552;28;20211;-52
2022/10/13 01:44:04;;;;;;;7.80;7.20;;;;;;;8.56;100.00;99128.69;4118701;28;20384;-53
2022/10/13 01:46:19;;;;;;;7.32;6.78;;;;;;;8.62;100.00;99124.25;4083170;28;20787;-53
2022/10/13 01:48:21;;;;;;;7.10;6.40;;;;;;;8.63;100.00;99123.19;4120647;28;20211;-54
2022/10/13 01:50:22;;;;;;;6.35;5.85;;;;;;;8.65;100.00;99121.06;4118963;28;20246;-52
2022/10/13 01:52:26;;;;;;;6.50;6.00;;;;;;;8.61;100.00;99108.94;4120211;28;21786;-53
2022/10/13 01:54:28;;;;;;;5.95;5.45;;;;;;;8.71;100.00;99109.25;4119953;28;20327;-52
2022/10/13 01:56:30;;;;;;;7.18;6.47;;;;;;;8.44;100.00;99113.28;4107022;28;21633;-53
2022/10/13 01:58:33;;;;;;;5.78;5.38;;;;;;;8.47;100.00;99119.13;4104752;28;20227;-52
2022/10/13 02:00:42;;;;;;;7.47;6.90;;;;;;;8.39;100.00;99113.09;4120711;28;20225;-52
2022/10/13 02:02:59;;;;;;;8.70;7.90;;;;;;;8.45;100.00;99112.22;4109015;28;20212;-53
2022/10/13 02:05:24;;;;;;;7.53;6.82;;;;;;;8.37;100.00;99101.59;4125625;28;20234;-52
2022/10/13 02:07:31;;;;;;;8.10;6.88;;;;;;;8.19;100.00;99104.19;4121189;28;20206;-51
2022/10/13 02:09:41;;;;;;;8.27;7.65;;;;;;;8.20;100.00;99105.91;4123595;28;20602;-53
2022/10/13 02:12:11;;;;;;;8.68;7.95;;;;;;;8.14;100.00;99095.84;4108035;28;20210;-54
2022/10/13 02:14:17;;;;;;;8.82;8.07;;;;;;;8.26;100.00;99099.56;4104661;28;20226;-51
2022/10/13 02:16:22;;;;;;;8.70;8.00;;;;;;;8.23;100.00;99089.94;4103759;28;20199;-54
2022/10/13 02:18:30;;;;;;;7.70;7.03;;;;;;;8.25;100.00;99087.00;4121860;28;20281;-54
2022/10/13 02:20:32;;;;;;;7.80;7.10;;;;;;;8.09;100.00;99085.59;4122150;28;20670;-52
2022/10/13 02:22:39;;;;;;;13.18;7.85;;;;;;;7.94;100.00;99089.69;4125468;28;20202;-52
2022/10/13 02:24:41;;;;;;;10.23;9.20;;;;;;;7.86;100.00;99077.19;4122945;28;20320;-52
2022/10/13 02:26:43;;;;;;;9.55;8.85;;;;;;;7.88;100.00;99074.25;4095680;28;20243;-53
2022/10/13 02:28:45;;;;;;;10.35;7.55;;;;;;;7.86;100.00;99065.44;4107204;28;20708;-53
2022/10/13 02:30:46;;;;;;;8.02;7.43;;;;;;;7.90;100.00;99083.03;4123347;28;20220;-52
2022/10/13 02:32:48;;;;;;;7.15;6.57;;;;;;;7.98;100.00;99069.97;4124330;28;20209;-52
2022/10/13 02:34:50;;;;;;;7.13;6.53;;;;;;;8.06;100.00;99072.44;4123921;28;20230;-55
2022/10/13 02:36:52;;;;;;;8.10;7.50;;;;;;;8.13;100.00;99077.81;4122398;28;20218;-52
2022/10/13 02:38:54;;;;;;;9.57;6.43;;;;;;;8.28;100.00;99067.47;4109510;28;20233;-52
2022/10/13 02:40:55;;;;;;;12.07;6.00;;;;;;;8.28;100.00;99070.22;4125114;28;20340;-52
2022/10/13 02:42:57;;;;;;;8.52;5.95;;;;;;;8.26;100.00;99072.31;4111177;28;20206;-54
2022/10/13 02:44:59;;;;;;;6.68;6.18;;;;;;;8.37;100.00;99069.72;4110369;28;20728;-53
2022/10/13 02:47:00;;;;;;;6.22;5.70;;;;;;;8.34;100.00;99072.06;4107734;28;20244;-52
2022/10/13 02:49:02;;;;;;;6.35;5.80;;;;;;;8.46;100.00;99072.97;4125943;28;21657;-54
2022/10/13 02:51:04;;;;;;;7.28;6.68;;;;;;;8.33;100.00;99065.75;4111531;28;20668;-54
2022/10/13 02:53:06;;;;;;;6.50;5.90;;;;;;;8.42;100.00;99060.84;4124605;28;20206;-52
2022/10/13 02:55:08;;;;;;;5.88;5.28;;;;;;;8.41;100.00;99064.66;4124813;28;20230;-54
2022/10/13 02:57:09;;;;;;;6.13;4.93;;;;;;;8.45;100.00;99055.78;4123832;28;20214;-54
2022/10/13 02:59:11;;;;;;;6.10;5.60;;;;;;;8.41;100.00;99042.84;4124250;28;20225;-52
2022/10/13 03:01:14;;;;;;;7.10;6.60;;;;;;;8.39;100.00;99050.38;4111911;28;20342;-52
2022/10/13 03:03:15;;;;;;;4.88;4.50;;;;;;;8.41;100.00;99056.47;4108114;28;20216;-54
2022/10/13 03:05:17;;;;;;;11.23;5.93;;;;;;;8.43;100.00;99059.78;4110529;28;20222;-52
2022/10/13 03:07:19;;;;;;;5.50;5.10;;;;;;;8.47;100.00;99061.00;4125931;28;20735;-55
2022/10/13 03:09:21;;;;;;;5.47;5.07;;;;;;;8.55;100.00;99063.47;4126372;28;20197;-52
2022/10/13 03:11:22;;;;;;;5.55;5.07;;;;;;;8.51;100.00;99048.59;4124842;28;20304;-53
2022/10/13 03:13:24;;;;;;;5.97;5.45;;;;;;;8.55;100.00;99049.84;4109103;28;20308;-54
2022/10/13 03:15:25;;;;;;;6.28;5.78;;;;;;;8.58;100.00;99052.09;4109384;28;20732;-54
2022/10/13 03:17:27;;;;;;;5.72;5.22;;;;;;;8.53;100.00;99057.38;4114211;28;20289;-52
2022/10/13 03:19:29;;;;;;;6.38;5.88;;;;;;;8.56;100.00;99056.94;4123516;28;20248;-54
2022/10/13 03:21:31;;;;;;;5.60;5.10;;;;;;;8.67;100.00;99058.91;4124784;28;20195;-54
2022/10/13 03:23:32;;;;;;;5.95;5.40;;;;;;;8.66;100.00;99057.25;4123830;28;20530;-54
2022/10/13 03:25:35;;;;;;;6.65;6.05;;;;;;;8.55;100.00;99056.09;4122551;28;20300;-54
2022/10/13 03:27:36;;;;;;;5.93;5.43;;;;;;;8.59;100.00;99056.50;4123022;28;20747;-53
2022/10/13 03:29:38;;;;;;;6.28;5.78;;;;;;;8.65;100.00;99061.06;4120343;28;20353;-53
2022/10/13 03:31:40;;;;;;;7.22;5.60;;;;;;;8.63;100.00;99057.72;4123615;28;20202;-52
2022/10/13 03:33:42;;;;;;;7.40;6.80;;;;;;;8.71;100.00;99050.09;4126932;28;20220;-53
2022/10/13 03:35:44;;;;;;;7.22;6.68;;;;;;;8.60;100.00;99047.25;4127531;28;20297;-53
2022/10/13 03:37:45;;;;;;;7.03;6.40;;;;;;;8.60;100.00;99048.09;4111224;28;20210;-56
2022/10/13 03:39:47;;;;;;;5.97;5.53;;;;;;;8.54;100.00;99042.72;4111770;28;20737;-53
2022/10/13 03:41:49;;;;;;;6.00;5.40;;;;;;;8.52;100.00;99045.66;4109137;28;20294;-55
2022/10/13 03:43:50;;;;;;;5.40;5.00;;;;;;;8.60;100.00;99037.19;4124382;28;20238;-54
2022/10/13 03:45:56;;;;;;;6.82;6.32;;;;;;;8.51;100.00;99026.78;4110205;28;20341;-55
2022/10/13 03:47:58;;;;;;;5.78;5.28;;;;;;;8.50;100.00;99033.31;4123113;28;20789;-53
2022/10/13 03:50:00;;;;;;;6.65;6.25;;;;;;;8.45;100.00;99036.69;4123572;28;20212;-51
2022/10/13 03:52:01;;;;;;;5.85;5.35;;;;;;;8.46;100.00;99045.69;4106914;28;20203;-53
2022/10/13 03:54:03;;;;;;;4.88;4.47;;;;;;;8.48;100.00;99043.59;4109503;28;20565;-53
2022/10/13 03:56:06;;;;;;;5.30;4.90;;;;;;;8.60;100.00;99036.34;4123786;28;20221;-53
2022/10/13 03:58:08;;;;;;;7.00;5.20;;;;;;;8.63;100.00;99025.00;4124477;28;20854;-52
2022/10/13 04:00:10;;;;;;;7.43;6.72;;;;;;;8.58;100.00;99030.28;4109476;28;20825;-51
2022/10/13 04:02:12;;;;;;;6.35;5.85;;;;;;;8.54;100.00;99031.81;4119869;28;20205;-53
2022/10/13 04:04:14;;;;;;;6.00;5.60;;;;;;;8.54;100.00;99029.06;4122869;28;20222;-52
2022/10/13 04:06:16;;;;;;;4.97;4.68;;;;;;;8.57;100.00;99026.72;4113152;28;20210;-52
2022/10/13 04:08:18;;;;;;;4.70;4.40;;;;;;;8.59;100.00;99034.66;4122539;28;20214;-53
2022/10/13 04:10:19;;;;;;;6.15;5.65;;;;;;;8.68;100.00;99034.16;4106448;28;21589;-52
2022/10/13 04:12:21;;;;;;;5.38;4.97;;;;;;;8.63;100.00;99025.81;4123286;28;20214;-53
2022/10/13 04:14:23;;;;;;;4.97;4.57;;;;;;;8.63;100.00;99030.44;4107141;28;20266;-53
2022/10/13 04:16:27;;;;;;;7.38;4.88;;;;;;;8.67;100.00;99026.19;4122145;28;20608;-53
2022/10/13 04:18:29;;;;;;;5.68;5.18;;;;;;;8.70;100.00;99025.75;4106684;28;20229;-53
2022/10/13 04:20:30;;;;;;;10.45;5.38;;;;;;;8.73;100.00;99025.28;4105304;28;20211;-54
2022/10/13 04:22:32;;;;;;;6.25;5.63;;;;;;;8.66;100.00;99019.06;4121497;28;20289;-53
2022/10/13 04:24:34;;;;;;;6.75;5.70;;;;;;;8.62;100.00;99024.13;4122387;28;20226;-52
2022/10/13 04:26:36;;;;;;;5.82;5.43;;;;;;;8.62;100.00;99034.22;4102119;28;20560;-53
2022/10/13 04:28:37;;;;;;;6.05;5.55;;;;;;;8.65;100.00;99028.31;4117568;28;20208;-54
2022/10/13 04:30:40;;;;;;;6.90;6.30;;;;;;;8.67;100.00;99032.50;4122894;28;20246;-52
2022/10/13 04:32:48;;;;;;;6.25;5.75;;;;;;;8.69;100.00;99035.00;4105881;28;20637;-53
2022/10/13 04:34:50;;;;;;;7.28;6.78;;;;;;;8.71;100.00;99038.34;4108351;28;20230;-52
2022/10/13 04:36:52;;;;;;;5.55;5.03;;;;;;;8.67;100.00;99029.75;4109054;28;20203;-53
2022/10/13 04:38:54;;;;;;;8.02;5.78;;;;;;;8.59;100.00;99023.75;4124197;28;20218;-52
2022/10/13 04:40:56;;;;;;;7.53;5.75;;;;;;;8.72;100.00;99018.16;4104849;28;20206;-53
2022/10/13 04:42:58;;;;;;;7.03;6.32;;;;;;;8.61;100.00;99010.75;4089604;28;20236;-53
2022/10/13 04:44:59;;;;;;;7.15;6.65;;;;;;;8.53;100.00;99008.28;4104777;28;20731;-52
2022/10/13 04:47:01;;;;;;;8.93;7.03;;;;;;;8.44;100.00;98998.75;4122307;28;20202;-52
2022/10/13 04:49:03;;;;;;;6.75;6.07;;;;;;;8.34;100.00;98992.97;4120169;28;20305;-54
2022/10/13 04:51:11;;;;;;;5.78;5.28;;;;;;;8.40;100.00;98997.50;4105887;28;20297;-51
2022/10/13 04:53:13;;;;;;;7.03;6.25;;;;;;;8.38;100.00;98991.44;4123200;28;20715;-52
2022/10/13 04:55:19;;;;;;;6.53;5.93;;;;;;;8.37;100.00;98996.09;4120885;28;20597;-52
2022/10/13 04:57:21;;;;;;;7.00;6.50;;;;;;;8.41;100.00;99000.03;4125944;28;20210;-52
2022/10/13 04:59:23;;;;;;;7.45;6.85;;;;;;;8.40;100.00;99002.97;4124113;28;20238;-52
2022/10/13 05:01:25;;;;;;;6.53;6.03;;;;;;;8.46;100.00;98996.63;4123296;28;20257;-52
2022/10/13 05:03:27;;;;;;;5.72;5.32;;;;;;;8.41;100.00;99000.03;4121052;28;20877;-54
2022/10/13 05:05:29;;;;;;;6.35;5.93;;;;;;;8.40;100.00;99000.22;4122584;28;20230;-51
2022/10/13 05:07:31;;;;;;;6.22;5.72;;;;;;;8.40;100.00;98998.34;4106642;28;20215;-51
2022/10/13 05:09:33;;;;;;;6.35;5.75;;;;;;;8.38;100.00;98999.63;4091226;28;20207;-51
2022/10/13 05:11:34;;;;;;;5.85;5.45;;;;;;;8.37;100.00;99008.88;4124034;28;20282;-53
2022/10/13 05:13:36;;;;;;;6.55;6.10;;;;;;;8.42;100.00;99006.31;4106468;28;20282;-51
2022/10/13 05:15:38;;;;;;;6.03;5.60;;;;;;;8.44;100.00;99015.09;4121454;28;20219;-52
2022/10/13 05:17:40;;;;;;;6.78;5.80;;;;;;;8.37;100.00;99015.19;4121526;28;20214;-52
2022/10/13 05:19:41;;;;;;;5.65;5.25;;;;;;;8.35;100.00;99016.47;4108087;28;20233;-53
2022/10/13 05:21:43;;;;;;;6.38;5.88;;;;;;;8.38;100.00;99016.84;4122626;28;20301;-51
2022/10/13 05:23:45;;;;;;;9.20;8.57;;;;;;;8.32;100.00;99016.88;4124210;28;20321;-52
2022/10/13 05:25:50;;;;;;;6.50;6.05;;;;;;;8.41;100.00;99016.38;4108954;28;20510;-52
2022/10/13 05:27:52;;;;;;;6.72;6.13;;;;;;;8.43;100.00;99018.88;4111029;28;20238;-53
2022/10/13 05:29:54;;;;;;;7.38;6.68;;;;;;;8.43;100.00;99019.72;4126483;28;20209;-53
2022/10/13 05:31:58;;;;;;;8.15;7.55;;;;;;;8.37;100.00;99019.78;4120756;28;20702;-52
2022/10/13 05:34:00;;;;;;;8.10;7.20;;;;;;;8.35;100.00;99020.00;4124012;28;20226;-52
2022/10/13 05:36:04;;;;;;;9.52;7.05;;;;;;;8.41;100.00;99021.03;4121968;28;20209;-52
2022/10/13 05:38:06;;;;;;;7.20;6.70;;;;;;;8.37;100.00;99017.06;4122047;28;20272;-52
2022/10/13 05:40:08;;;;;;;7.95;7.20;;;;;;;8.47;100.00;99020.09;4115508;28;20258;-51
2022/10/13 05:42:10;;;;;;;6.85;6.35;;;;;;;8.57;100.00;99009.53;4104710;28;20277;-51
2022/10/13 05:44:12;;;;;;;6.65;6.15;;;;;;;8.55;100.00;99006.19;4109747;28;20266;-51
2022/10/13 05:46:14;;;;;;;6.40;5.90;;;;;;;8.46;100.00;99007.53;4105568;28;20616;-52
2022/10/13 05:48:15;;;;;;;5.50;5.00;;;;;;;8.46;100.00;99018.44;4124533;28;20248;-51
2022/10/13 05:50:18;;;;;;;6.63;5.47;;;;;;;8.54;100.00;99007.25;4108706;28;20305;-51
2022/10/13 05:52:20;;;;;;;7.30;6.70;;;;;;;8.47;100.00;99009.19;4107292;28;20218;-51
2022/10/13 05:54:42;;;;;;;6.82;6.35;;;;;;;8.51;100.00;99015.88;4121646;28;20237;-52
2022/10/13 05:56:50;;;;;;;6.75;6.25;;;;;;;8.37;100.00;99019.78;4122966;28;20234;-50
2022/10/13 05:58:58;;;;;;;14.57;13.18;;;;;;;8.41;100.00;99024.56;4107792;28;20198;-52
2022/10/13 06:01:00;;;;;;;9.18;7.57;;;;;;;8.40;100.00;99019.31;4123854;28;20206;-52
2022/10/13 06:03:08;;;;;;;8.38;7.57;;;;;;;8.29;100.00;99007.25;4107364;28;20246;-51
2022/10/13 06:05:15;;;;;;;7.07;6.57;;;;;;;8.33;100.00;99002.19;4108178;28;20230;-51
2022/10/13 06:07:17;;;;;;;6.65;6.18;;;;;;;8.47;100.00;98992.81;4121558;28;20293;-52
2022/10/13 06:09:19;;;;;;;8.05;7.22;;;;;;;8.39;100.00;98987.66;4106907;28;20206;-52
2022/10/13 06:11:21;;;;;;;5.50;5.10;;;;;;;8.46;100.00;98997.47;4090641;28;20218;-52
2022/10/13 06:13:23;;;;;;;7.70;6.57;;;;;;;8.47;100.00;98995.53;4105572;28;20241;-51
2022/10/13 06:15:25;;;;;;;6.07;5.57;;;;;;;8.28;100.00;98993.88;4121726;28;20971;-51
2022/10/13 06:17:29;;;;;;;9.63;6.30;;;;;;;8.13;100.00;98990.59;4124790;28;20249;-51
2022/10/13 06:19:30;;;;;;;6.28;5.78;;;;;;;8.07;100.00;98988.75;4091763;28;20586;-54
2022/10/13 06:21:35;;;;;;;6.90;6.30;;;;;;;8.13;100.00;98991.44;4108946;28;20245;-51
2022/10/13 06:23:37;;;;;;;8.80;6.68;;;;;;;8.31;100.00;99004.31;4118678;28;20336;-53
2022/10/13 06:25:49;;;;;;;13.52;8.65;;;;;;;8.32;100.00;99000.53;4120719;28;20224;-51
2022/10/13 06:27:51;;;;;;;7.78;7.25;;;;;;;8.19;100.00;98989.72;4122760;28;20218;-51
2022/10/13 06:29:53;;;;;;;7.00;6.60;;;;;;;8.24;100.00;98977.13;4106533;28;20222;-52
2022/10/13 06:31:58;;;;;;;7.47;6.88;;;;;;;8.22;100.00;98983.84;4124015;28;20317;-51
2022/10/13 06:33:59;;;;;;;6.63;6.22;;;;;;;8.24;100.00;98989.91;4110266;28;20227;-51
2022/10/13 06:36:03;;;;;;;6.78;6.28;;;;;;;8.33;100.00;99003.03;4109877;28;20207;-52
2022/10/13 06:38:05;;;;;;;6.22;5.63;;;;;;;8.24;100.00;98998.94;4109728;28;20625;-52
2022/10/13 06:40:07;;;;;;;7.53;6.80;;;;;;;8.29;100.00;99006.44;4126445;28;20262;-51
2022/10/13 06:42:09;;;;;;;7.22;6.55;;;;;;;8.33;100.00;99007.66;4125690;28;20229;-51
2022/10/13 06:44:11;;;;;;;6.63;6.13;;;;;;;8.43;100.00;99002.53;4093969;28;20237;-53
2022/10/13 06:46:13;;;;;;;9.13;8.43;;;;;;;8.35;100.00;99011.00;4123528;28;20212;-53
2022/10/13 06:48:17;;;;;;;8.45;7.85;;;;;;;8.24;100.00;99000.81;4108620;28;20234;-52
2022/10/13 06:50:20;;;;;;;8.82;8.05;;;;;;;8.31;100.00;99004.31;4107878;28;20207;-52
2022/10/13 06:52:22;;;;;;;6.22;5.72;;;;;;;8.41;100.00;98999.19;4125190;28;20205;-52
2022/10/13 06:54:24;;;;;;;7.18;6.47;;;;;;;8.51;100.00;98999.50;4096234;28;20246;-50
2022/10/13 06:56:25;;;;;;;7.60;7.00;;;;;;;8.39;100.00;99001.28;4105594;28;20209;-50
2022/10/13 06:58:27;;;;;;;6.72;6.10;;;;;;;8.46;100.00;99008.38;4108141;28;20281;-52
2022/10/13 07:00:29;;;;;;;8.15;7.45;;;;;;;8.54;100.00;99007.25;4124881;28;20818;-52
2022/10/13 07:02:31;;;;;;;8.65;7.90;;;;;;;8.66;100.00;99002.69;4108765;28;20203;-52
2022/10/13 07:04:33;;;;;;;8.25;7.55;;;;;;;8.71;100.00;99000.97;4107232;28;20226;-52
2022/10/13 07:06:34;;;;;;;8.38;7.78;;;;;;;8.71;100.00;99006.44;4107278;28;20713;-52
2022/10/13 07:08:36;;;;;;;7.05;6.55;;;;;;;8.78;100.00;99011.81;4125989;28;20294;-52
2022/10/13 07:10:39;;;;;;;7.32;6.72;;;;;;;8.79;100.00;99003.41;4124028;28;21277;-52
2022/10/13 07:12:41;;;;;;;9.23;6.57;;;;;;;8.71;100.00;99011.06;4122126;28;20210;-52
2022/10/13 07:14:48;;;;;;;7.03;6.43;;;;;;;8.64;100.00;99005.69;4122710;28;20245;-51
2022/10/13 07:16:50;;;;;;;7.53;6.70;;;;;;;8.74;100.00;99011.44;4108320;28;20325;-52
2022/10/13 07:18:52;;;;;;;7.43;6.60;;;;;;;8.84;100.00;99010.91;4124182;28;20217;-51
2022/10/13 07:20:53;;;;;;;9.10;7.88;;;;;;;8.73;100.00;99011.66;4106176;28;20315;-51
2022/10/13 07:22:55;;;;;;;6.50;5.90;;;;;;;8.66;100.00;99006.28;4121384;28;20221;-51
2022/10/13 07:24:57;;;;;;;7.68;7.07;;;;;;;8.58;100.00;98994.81;4109303;28;20733;-50
2022/10/13 07:26:59;;;;;;;7.00;6.50;;;;;;;8.62;100.00;98996.03;4125148;28;20209;-51
2022/10/13 07:29:08;;;;;;;8.05;7.22;;;;;;;8.75;100.00;98990.44;4123743;28;20197;-50
2022/10/13 07:31:13;;;;;;;8.35;7.65;;;;;;;8.73;100.00;98987.09;4109556;28;20657;-50
2022/10/13 07:33:15;;;;;;;8.18;7.53;;;;;;;8.75;100.00;98991.25;4123638;28;20217;-50
2022/10/13 07:35:16;;;;;;;10.15;9.23;;;;;;;8.78;100.00;98979.06;4091997;28;20259;-53
2022/10/13 07:37:18;;;;;;;11.73;8.30;;;;;;;8.53;100.00;98983.75;4107226;28;20202;-51
2022/10/13 07:39:20;;;;;;;9.30;8.52;;;;;;;8.71;100.00;98983.75;4125503;28;20297;-52
2022/10/13 07:41:25;;;;;;;8.77;8.00;;;;;;;8.79;100.00;98988.91;4109041;28;20600;-52
2022/10/13 07:43:27;;;;;;;8.70;7.95;;;;;;;8.84;100.00;98983.63;4124057;28;20664;-51
2022/10/13 07:45:29;;;;;;;8.07;7.28;;;;;;;8.83;100.00;98982.78;4108837;28;20230;-51
2022/10/13 07:47:31;;;;;;;8.20;7.50;;;;;;;8.89;100.00;98991.97;4125244;28;21277;-51
2022/10/13 07:49:32;;;;;;;9.05;8.23;;;;;;;8.96;100.00;98992.72;4109784;28;20202;-51
2022/10/13 07:51:34;;;;;;;8.52;7.82;;;;;;;8.89;100.00;98992.78;4126094;28;20210;-51
2022/10/13 07:53:36;;;;;;;9.38;8.18;;;;;;;8.93;100.00;98993.16;4108384;28;20207;-52
2022/10/13 07:55:38;;;;;;;7.38;6.88;;;;;;;8.88;100.00;98995.75;4123493;28;20237;-52
2022/10/13 07:57:39;;;;;;;9.60;7.63;;;;;;;8.87;100.00;98994.06;4123622;28;20266;-52
2022/10/13 07:59:41;;;;;;;9.13;8.23;;;;;;;8.83;100.00;98998.31;4109116;28;20207;-52
2022/10/13 08:01:43;;;;;;;7.88;7.28;;;;;;;8.93;100.00;98993.16;4092451;28;20294;-53
2022/10/13 08:03:45;;;;;;;10.30;9.35;;;;;;;8.90;100.00;98990.91;4107801;28;20301;-52
2022/10/13 08:05:51;;;;;;;14.27;9.88;;;;;;;8.95;100.00;98993.78;4122475;28;20750;-52
2022/10/13 08:07:53;;;;;;;10.65;9.65;;;;;;;9.03;100.00;98990.75;4124626;28;20217;-52
2022/10/13 08:09:58;;;;;;;10.55;9.52;;;;;;;9.02;100.00;98986.34;4120766;28;20684;-52
2022/10/13 08:12:00;;;;;;;10.63;9.82;;;;;;;9.12;100.00;98987.47;4123517;28;20206;-52
2022/10/13 08:14:02;;;;;;;10.98;9.48;;;;;;;9.17;100.00;98990.34;4108049;28;20301;-52
2022/10/13 08:16:04;;;;;;;11.82;9.27;;;;;;;9.05;100.00;98991.34;4106544;28;20240;-55
2022/10/13 08:18:07;;;;;;;9.90;8.95;;;;;;;9.13;100.00;98982.81;4122430;28;20213;-54
2022/10/13 08:20:09;;;;;;;8.90;8.10;;;;;;;9.19;100.00;98981.91;4123497;28;20566;-55
2022/10/13 08:22:11;;;;;;;9.35;7.20;;;;;;;9.21;100.00;98980.63;4109666;28;20206;-52
2022/10/13 08:24:14;;;;;;;9.95;8.85;;;;;;;9.27;100.00;98984.31;4108346;28;20223;-52
2022/10/13 08:26:24;;;;;;;12.88;9.50;;;;;;;9.31;100.00;98978.19;4110096;28;20214;-52
2022/10/13 08:28:27;;;;;;;11.00;9.90;;;;;;;9.41;100.00;98974.91;4119899;28;20222;-51
2022/10/13 08:30:29;;;;;;;12.55;11.50;;;;;;;9.40;100.00;98974.06;4123457;28;20436;-52
2022/10/13 08:32:31;;;;;;;10.68;9.13;;;;;;;9.50;100.00;98968.91;4106309;28;20222;-51
2022/10/13 08:34:34;;;;;;;10.07;9.05;;;;;;;9.54;100.00;98964.63;4119441;28;20768;-52
2022/10/13 08:36:36;;;;;;;10.38;9.50;;;;;;;9.61;100.00;98970.81;4121866;28;20211;-50
2022/10/13 08:38:37;;;;;;;9.45;8.57;;;;;;;9.63;100.00;98973.31;4114952;28;20206;-52
2022/10/13 08:40:39;;;;;;;9.30;8.50;;;;;;;9.66;100.00;98962.75;4090471;28;20209;-53
2022/10/13 08:42:42;;;;;;;9.90;9.10;;;;;;;9.69;100.00;98962.28;4123935;28;20237;-52
2022/10/13 08:44:49;;;;;;;10.35;7.53;;;;;;;9.74;100.00;98965.16;4094124;28;20389;-52
2022/10/13 08:47:11;;;;;;;9.30;8.20;;;;;;;9.76;100.00;98968.47;4107329;28;20202;-52
2022/10/13 08:49:14;;;;;;;9.35;8.40;;;;;;;9.77;100.00;98969.31;4121128;28;20293;-51
2022/10/13 08:51:16;;;;;;;9.00;8.23;;;;;;;9.84;100.00;98964.59;4105743;28;20513;-52
2022/10/13 08:53:26;;;;;;;8.85;8.07;;;;;;;9.90;100.00;98967.22;4107898;28;20228;-51
2022/10/13 08:55:34;;;;;;;11.07;10.27;;;;;;;9.91;100.00;98970.78;4121694;28;20818;-52
2022/10/13 08:57:35;;;;;;;9.10;8.40;;;;;;;9.95;100.00;98972.81;4121606;28;20214;-52
2022/10/13 08:59:37;;;;;;;9.23;8.57;;;;;;;9.97;100.00;98975.31;4123663;28;20213;-50
2022/10/13 09:01:40;;;;;;;8.65;7.95;;;;;;;10.01;100.00;98977.34;4121295;28;20707;-52
2022/10/13 09:03:42;;;;;;;9.20;8.45;;;;;;;10.04;100.00;98976.91;4119919;28;20221;-51
2022/10/13 09:06:12;;;;;;;10.43;9.65;;;;;;;10.07;100.00;98965.50;4120356;28;20239;-51
2022/10/13 09:08:18;;;;;;;8.52;7.82;;;;;;;10.08;100.00;98982.75;4122897;28;20244;-53
2022/10/13 09:10:20;;;;;;;9.48;8.68;;;;;;;10.20;100.00;98991.75;4105538;28;20597;-50
2022/10/13 09:12:23;;;;;;;9.80;8.80;;;;;;;10.19;100.00;98992.84;4122223;28;20757;-51
2022/10/13 09:14:28;;;;;;;15.93;12.18;;;;;;;10.17;100.00;98987.63;4123018;28;20233;-51
2022/10/13 09:16:42;;;;;;;12.27;11.27;;;;;;;10.13;100.00;99001.97;4120261;28;20676;-50
2022/10/13 09:18:47;;;;;;;18.30;11.95;;;;;;;10.15;100.00;98989.75;4106937;28;20309;-50
2022/10/13 09:20:48;;;;;;;12.73;11.68;;;;;;;10.11;100.00;98987.72;4107796;28;20233;-49
2022/10/13 09:23:13;;;;;;;14.45;12.90;;;;;;;10.10;100.00;98981.44;4119363;28;20237;-51
2022/10/13 09:25:20;;;;;;;13.68;12.63;;;;;;;10.13;100.00;98985.56;4106984;28;20317;-50
2022/10/13 09:27:22;;;;;;;16.17;14.75;;;;;;;10.08;100.00;98982.75;4103946;28;20284;-50
2022/10/13 09:29:25;;;;;;;19.60;17.58;;;;;;;10.11;100.00;98982.25;4109627;28;20199;-50
2022/10/13 09:31:31;;;;;;;19.77;14.55;;;;;;;10.15;100.00;98970.59;4105333;28;20206;-51
2022/10/13 09:33:35;;;;;;;20.33;15.70;;;;;;;10.18;100.00;98961.94;4106416;28;20202;-51
2022/10/13 09:35:39;;;;;;;18.00;13.52;;;;;;;10.28;100.00;98972.31;4119639;28;20217;-49
2022/10/13 09:37:41;;;;;;;19.00;12.25;;;;;;;10.29;100.00;98974.78;4121691;28;20284;-52
2022/10/13 09:39:42;;;;;;;14.13;13.00;;;;;;;10.32;100.00;98973.47;4118740;28;20210;-51
2022/10/13 09:41:44;;;;;;;14.38;12.98;;;;;;;10.42;100.00;98969.06;4123967;28;20233;-53